メインページ
METAR-TAF:

METAR-TAF

空港 :

ポンタ・デルガダ, アゾレス諸島, ポルトガル

ポンタ・デルガダ空港

緯度: 37-44N, 経度: 025-42W, 海抜: 71m

現時点の気象観測

当レポートは18分前の15:30(UTC)に作成
西の風 18kt
気温 16°C
湿度 63%
気圧 1028 hPa
視程10km以上
高度2500ftの雲はほとんどない

METAR: LPPD 191530Z 28018KT 9999 FEW025 16/09 Q1028

時間: 15:48 (15:48 UTC)

予報

当レポートは4時間48分前の11:00(UTC)に作成
予報は19日の 12時(UTC)から 20日の 12時(UTC)まで有効
西/北西の風 10kt
視程10km以上
高度2500ftの雲は散在している
19日の 12時(UTC)から 20日の 09時(UTC)まで一時的に
高度1800ftの雲はほとんどない
高度4000ftの千切れ雲あり
19日の 16時(UTC)から 19日の 18時(UTC)まで徐々に
北/北西の風 8kt

TAF: LPPD 191100Z 1912/2012 30010KT 9999 SCT025 TEMPO 1912/2009 FEW018 BKN040 BECMG 1916/1918 34008KT

4,000以上の空港の気象観測と天気予報(METAR報とTAF報)

利用可能な観測所は地図上に黄色い丸と赤い丸で示す。

丸の上にカーソルを重ねると観測所名を参照できる。

次にクリックすると気象観測と天気予報を参照できる。

マップの切り替え:黒色「×」印の緑ボタンをクリックして拡大、「-」印の緑ボタンをクリックして縮小、緑色の三角印をクリックして隣りの地図に切り替え


METAR-TAF: